createdAt,value
2023-05-12T00:01:26.033Z,99853.75
2023-05-12T00:03:53.814Z,99855.97
2023-05-12T00:06:20.967Z,99859.09
2023-05-12T00:08:47.328Z,99867.25
2023-05-12T00:11:13.785Z,99858.53
2023-05-12T00:13:40.233Z,99859.53
2023-05-12T00:16:06.923Z,99863.50
2023-05-12T00:18:33.476Z,99864.66
2023-05-12T00:20:59.901Z,99870.09
2023-05-12T00:23:26.272Z,99875.22
2023-05-12T00:25:52.668Z,99877.44
2023-05-12T00:28:20.996Z,99873.59
2023-05-12T00:30:47.394Z,99857.41
2023-05-12T00:33:13.818Z,99859.56
2023-05-12T00:35:40.263Z,99859.56
2023-05-12T00:38:06.720Z,99866.56
2023-05-12T00:40:33.108Z,99863.75
2023-05-12T00:42:59.501Z,99861.16
2023-05-12T00:45:26.617Z,99862.59
2023-05-12T00:47:53.500Z,99864.91
2023-05-12T00:50:21.135Z,99861.66
2023-05-12T00:52:49.323Z,99863.69
2023-05-12T00:55:16.377Z,99866.75
2023-05-12T00:57:43.632Z,99861.66
2023-05-12T01:00:10.675Z,99861.66
2023-05-12T01:02:37.232Z,99863.06
2023-05-12T01:05:04.216Z,99862.00
2023-05-12T01:07:33.116Z,99861.41
2023-05-12T01:09:59.907Z,99863.25
2023-05-12T01:12:27.224Z,99860.34
2023-05-12T01:14:54.974Z,99863.44
2023-05-12T01:17:28.106Z,99862.81
2023-05-12T01:19:58.639Z,99862.28
2023-05-12T01:22:26.331Z,99858.34
2023-05-12T01:24:56.987Z,99863.38
2023-05-12T01:27:26.503Z,99867.50
2023-05-12T01:29:54.529Z,99870.19
2023-05-12T01:32:22.095Z,99855.19
2023-05-12T01:34:49.600Z,99858.25
2023-05-12T01:37:16.060Z,99856.34
2023-05-12T01:39:42.737Z,99859.84
2023-05-12T01:42:09.108Z,99868.97
2023-05-12T01:44:35.528Z,99873.41
2023-05-12T01:47:02.021Z,99863.25
2023-05-12T01:49:28.975Z,99871.72
2023-05-12T01:51:55.748Z,99870.97
2023-05-12T01:54:22.214Z,99875.94
2023-05-12T01:56:48.606Z,99867.59
2023-05-12T01:59:15.387Z,99872.75
2023-05-12T02:01:42.088Z,99878.94
2023-05-12T02:04:09.117Z,99875.53
2023-05-12T02:06:35.866Z,99866.06
2023-05-12T02:09:02.661Z,99869.94
2023-05-12T02:11:29.040Z,99881.53
2023-05-12T02:13:55.408Z,99879.38
2023-05-12T02:16:22.000Z,99875.06
2023-05-12T02:18:48.788Z,99873.22
2023-05-12T02:21:15.282Z,99877.25
2023-05-12T02:23:41.715Z,99878.16
2023-05-12T02:26:08.178Z,99880.56
2023-05-12T02:28:34.850Z,99875.66
2023-05-12T02:31:01.200Z,99877.72
2023-05-12T02:33:27.532Z,99881.09
2023-05-12T02:35:53.912Z,99898.47
2023-05-12T02:38:20.406Z,99885.94
2023-05-12T02:40:47.511Z,99887.97
2023-05-12T02:43:13.939Z,99882.75
2023-05-12T02:45:40.416Z,99883.59
2023-05-12T02:48:07.237Z,99883.13
2023-05-12T02:50:33.688Z,99884.25
2023-05-12T02:53:00.030Z,99878.53
2023-05-12T02:55:27.089Z,99883.88
2023-05-12T02:57:53.613Z,99880.56
2023-05-12T03:00:20.105Z,99881.84
2023-05-12T03:02:46.795Z,99877.78
2023-05-12T03:05:13.306Z,99885.88
2023-05-12T03:07:39.731Z,99880.47
2023-05-12T03:10:06.631Z,99886.50
2023-05-12T03:12:33.016Z,99878.91
2023-05-12T03:14:59.360Z,99883.13
2023-05-12T03:17:26.015Z,99883.19
2023-05-12T03:19:52.544Z,99886.69
2023-05-12T03:22:19.028Z,99885.16
2023-05-12T03:24:46.357Z,99885.91
2023-05-12T03:27:13.041Z,99881.31
2023-05-12T03:29:39.490Z,99881.88
2023-05-12T03:32:06.378Z,99881.50
2023-05-12T03:34:33.064Z,99888.91
2023-05-12T03:36:59.724Z,99892.84
2023-05-12T03:39:26.164Z,99889.28
2023-05-12T03:41:52.533Z,99889.28
2023-05-12T03:44:18.940Z,99888.72
2023-05-12T03:46:45.642Z,99897.38
2023-05-12T03:49:12.550Z,99897.81
2023-05-12T03:51:39.262Z,99891.00
2023-05-12T03:54:05.846Z,99900.66
2023-05-12T03:56:32.275Z,99897.81
2023-05-12T03:58:58.905Z,99901.22
2023-05-12T04:01:25.474Z,99885.91
2023-05-12T04:03:51.955Z,99897.59
2023-05-12T04:06:18.335Z,99900.09
2023-05-12T04:08:44.706Z,99902.41
2023-05-12T04:11:11.150Z,99902.03
2023-05-12T04:13:37.635Z,99902.34
2023-05-12T04:16:04.445Z,99903.44
2023-05-12T04:18:30.924Z,99906.00
2023-05-12T04:20:57.872Z,99908.97
2023-05-12T04:23:24.377Z,99908.78
2023-05-12T04:25:50.858Z,99909.91
2023-05-12T04:28:17.240Z,99904.00
2023-05-12T04:30:43.617Z,99904.34
2023-05-12T04:33:10.318Z,99906.56
2023-05-12T04:35:37.055Z,99905.81
2023-05-12T04:38:03.522Z,99905.06
2023-05-12T04:40:32.669Z,99908.22
2023-05-12T04:43:00.719Z,99910.50
2023-05-12T04:45:27.107Z,99917.31
2023-05-12T04:47:53.524Z,99915.09
2023-05-12T04:50:20.070Z,99918.84
2023-05-12T04:52:46.533Z,99923.81
2023-05-12T04:55:12.886Z,99921.72
2023-05-12T04:57:41.235Z,99920.97
2023-05-12T05:00:09.052Z,99918.75
2023-05-12T05:02:35.718Z,99916.91
2023-05-12T05:05:02.218Z,99916.34
2023-05-12T05:07:28.781Z,99913.69
2023-05-12T05:09:55.216Z,99913.31
2023-05-12T05:12:21.569Z,99922.06
2023-05-12T05:14:48.067Z,99926.25
2023-05-12T05:17:14.543Z,99931.66
2023-05-12T05:19:54.864Z,99927.28
2023-05-12T05:22:25.268Z,99929.41
2023-05-12T05:24:51.974Z,99930.06
2023-05-12T05:27:18.629Z,99939.16
2023-05-12T05:29:45.019Z,99934.47
2023-05-12T05:32:11.453Z,99931.38
2023-05-12T05:34:38.205Z,99936.59
2023-05-12T05:37:04.795Z,99937.03
2023-05-12T05:39:31.460Z,99930.81
2023-05-12T05:41:58.082Z,99932.72
2023-05-12T05:44:25.121Z,99936.03
2023-05-12T05:46:51.836Z,99934.56
2023-05-12T05:49:18.774Z,99930.59
2023-05-12T05:51:45.253Z,99933.75
2023-05-12T05:54:12.113Z,99943.16
2023-05-12T05:56:38.573Z,99942.47
2023-05-12T05:59:05.287Z,99950.75
2023-05-12T06:01:32.620Z,99951.19
2023-05-12T06:03:59.202Z,99946.31
2023-05-12T06:06:26.020Z,99945.84
2023-05-12T06:08:52.532Z,99953.72
2023-05-12T06:11:18.895Z,99950.50
2023-05-12T06:13:45.348Z,99945.16
2023-05-12T06:16:11.769Z,99955.47
2023-05-12T06:18:38.619Z,99955.81
2023-05-12T06:21:06.151Z,99955.97
2023-05-12T06:23:35.079Z,99958.03
2023-05-12T06:26:01.470Z,99962.19
2023-05-12T06:28:27.848Z,99959.78
2023-05-12T06:30:54.201Z,99962.31
2023-05-12T06:33:20.810Z,99963.16
2023-05-12T06:35:47.187Z,99964.22
2023-05-12T06:38:13.691Z,99963.44
2023-05-12T06:40:40.206Z,99970.53
2023-05-12T06:43:07.298Z,99963.41
2023-05-12T06:45:33.778Z,99963.00
2023-05-12T06:48:01.503Z,99959.28
2023-05-12T06:50:27.949Z,99964.59
2023-05-12T06:52:54.314Z,99960.50
2023-05-12T06:55:21.186Z,99959.47
2023-05-12T06:57:47.798Z,99963.41
2023-05-12T07:00:14.632Z,99962.41
2023-05-12T07:02:41.247Z,99963.47
2023-05-12T07:05:08.138Z,99963.69
2023-05-12T07:07:35.934Z,99969.88
2023-05-12T07:10:02.381Z,99962.69
2023-05-12T07:12:28.790Z,99964.34
2023-05-12T07:14:55.313Z,99961.69
2023-05-12T07:17:21.821Z,99960.47
2023-05-12T07:19:48.326Z,99956.56
2023-05-12T07:22:14.800Z,99949.97
2023-05-12T07:24:41.613Z,99956.59
2023-05-12T07:27:08.227Z,99955.59
2023-05-12T07:29:34.888Z,99961.19
2023-05-12T07:32:01.425Z,99949.41
2023-05-12T07:34:27.847Z,99955.19
2023-05-12T07:36:54.391Z,99952.31
2023-05-12T07:39:23.717Z,99954.19
2023-05-12T07:41:51.096Z,99955.00
2023-05-12T07:44:17.682Z,99957.72
2023-05-12T07:46:44.426Z,99957.50
2023-05-12T07:49:10.918Z,99959.97
2023-05-12T07:51:37.386Z,99962.03
2023-05-12T07:54:04.833Z,99959.34
2023-05-12T07:56:31.324Z,99951.09
2023-05-12T07:58:57.733Z,99956.69
2023-05-12T08:01:24.524Z,99953.16
2023-05-12T08:03:51.648Z,99955.41
2023-05-12T08:06:18.579Z,99960.38
2023-05-12T08:08:45.130Z,99954.59
2023-05-12T08:11:12.679Z,99954.38
2023-05-12T08:13:40.291Z,99952.13
2023-05-12T08:16:06.681Z,99950.06
2023-05-12T08:18:33.083Z,99954.38
2023-05-12T08:20:59.458Z,99952.50
2023-05-12T08:23:26.053Z,99954.22
2023-05-12T08:25:52.461Z,99952.50
2023-05-12T08:28:18.804Z,99958.31
2023-05-12T08:30:45.556Z,99954.19
2023-05-12T08:33:12.522Z,99950.41
2023-05-12T08:35:39.157Z,99953.31
2023-05-12T08:38:05.866Z,99953.88
2023-05-12T08:40:38.177Z,99952.81
2023-05-12T08:43:04.613Z,99956.13
2023-05-12T08:45:31.434Z,99960.66
2023-05-12T08:47:59.108Z,99956.56
2023-05-12T08:50:27.097Z,99960.91
2023-05-12T08:52:53.644Z,99959.84
2023-05-12T08:55:20.840Z,99962.75
2023-05-12T08:57:48.653Z,99966.66
2023-05-12T09:00:16.373Z,99962.72
2023-05-12T09:02:52.851Z,99957.31
2023-05-12T09:05:21.209Z,99962.63
2023-05-12T09:07:49.991Z,99959.94
2023-05-12T09:10:32.762Z,99963.19
2023-05-12T09:13:15.726Z,99962.97
2023-05-12T09:15:45.360Z,99960.78
2023-05-12T09:18:11.723Z,99958.75
2023-05-12T09:20:38.188Z,99960.75
2023-05-12T09:23:19.192Z,99965.72
2023-05-12T09:25:48.889Z,99955.56
2023-05-12T09:28:15.554Z,99959.81
2023-05-12T09:30:42.597Z,99952.69
2023-05-12T09:33:11.033Z,99961.81
2023-05-12T09:35:45.508Z,99958.69
2023-05-12T09:38:14.877Z,99957.97
2023-05-12T09:40:42.405Z,99959.78
2023-05-12T09:43:09.115Z,99953.66
2023-05-12T09:45:36.764Z,99967.72
2023-05-12T09:48:13.749Z,99954.63
2023-05-12T09:50:51.341Z,99957.75
2023-05-12T09:53:19.371Z,99956.88
2023-05-12T09:55:47.273Z,99955.53
2023-05-12T09:58:16.329Z,99952.09
2023-05-12T10:01:09.022Z,99946.69
2023-05-12T10:03:32.481Z,99954.19
2023-05-12T10:06:02.686Z,99952.09
2023-05-12T10:08:51.888Z,99952.84
2023-05-12T10:11:19.637Z,99958.25
2023-05-12T10:13:46.806Z,99954.34
2023-05-12T10:16:14.176Z,99944.31
2023-05-12T10:18:43.321Z,99945.06
2023-05-12T10:21:11.983Z,99945.63
2023-05-12T10:23:41.384Z,99945.63
2023-05-12T10:26:07.835Z,99937.09
2023-05-12T10:28:34.201Z,99937.38
2023-05-12T10:31:00.811Z,99940.66
2023-05-12T10:33:27.685Z,99942.72
2023-05-12T10:35:54.230Z,99938.44
2023-05-12T10:38:20.627Z,99932.94
2023-05-12T10:40:59.780Z,99942.78
2023-05-12T10:43:29.009Z,99955.09
2023-05-12T10:46:16.406Z,99942.63
2023-05-12T10:48:51.543Z,99942.63
2023-05-12T10:51:23.195Z,99940.44
2023-05-12T10:53:59.016Z,99942.16
2023-05-12T10:56:40.007Z,99936.41
2023-05-12T10:59:18.629Z,99940.41
2023-05-12T11:01:59.049Z,99937.13
2023-05-12T11:04:50.397Z,99942.66
2023-05-12T11:07:22.216Z,99937.84
2023-05-12T11:09:56.940Z,99935.47
2023-05-12T11:12:26.742Z,99937.03
2023-05-12T11:14:53.527Z,99948.47
2023-05-12T11:17:19.948Z,99950.09
2023-05-12T11:19:48.317Z,99930.69
2023-05-12T11:22:18.435Z,99937.34
2023-05-12T11:24:44.792Z,99929.00
2023-05-12T11:27:18.559Z,99938.88
2023-05-12T11:29:55.102Z,99940.78
2023-05-12T11:32:21.485Z,99930.28
2023-05-12T11:34:47.839Z,99931.00
2023-05-12T11:37:14.373Z,99936.41
2023-05-12T11:39:41.809Z,99949.31
2023-05-12T11:42:13.427Z,99943.69
2023-05-12T11:44:50.593Z,99945.97
2023-05-12T11:47:19.390Z,99939.41
2023-05-12T11:49:54.967Z,99951.78
2023-05-12T11:52:23.042Z,99947.00
2023-05-12T11:54:57.355Z,99954.03
2023-05-12T11:57:32.550Z,99951.78
2023-05-12T12:00:07.618Z,99953.97
2023-05-12T12:02:35.757Z,99948.47
2023-05-12T12:05:02.593Z,99951.78
2023-05-12T12:07:34.256Z,99950.97
2023-05-12T12:10:14.389Z,99953.34
2023-05-12T12:12:41.974Z,99958.25
2023-05-12T12:15:09.570Z,99966.09
2023-05-12T12:17:36.124Z,99965.97
2023-05-12T12:20:02.999Z,99965.53
2023-05-12T12:22:34.024Z,99966.56
2023-05-12T12:25:01.254Z,99961.94
2023-05-12T12:27:27.608Z,99964.63
2023-05-12T12:29:53.969Z,99968.53
2023-05-12T12:32:20.424Z,99973.56
2023-05-12T12:34:48.451Z,99969.00
2023-05-12T12:37:14.836Z,99970.63
2023-05-12T12:39:41.419Z,99975.56
2023-05-12T12:42:08.291Z,99970.38
2023-05-12T12:44:34.653Z,99965.44
2023-05-12T12:47:01.235Z,99967.66
2023-05-12T12:49:27.719Z,99972.63
2023-05-12T12:51:55.233Z,99967.06
2023-05-12T12:54:21.771Z,99964.31
2023-05-12T12:56:48.179Z,99975.00
2023-05-12T12:59:14.948Z,99965.44
2023-05-12T13:01:41.435Z,99963.94
2023-05-12T13:04:07.835Z,99968.69
2023-05-12T13:06:34.714Z,99958.44
2023-05-12T13:09:01.535Z,99960.22
2023-05-12T13:11:28.250Z,99956.56
2023-05-12T13:13:54.610Z,99956.34
2023-05-12T13:16:21.076Z,99960.94
2023-05-12T13:18:47.551Z,99958.16
2023-05-12T13:21:14.113Z,99960.66
2023-05-12T13:23:40.558Z,99960.28
2023-05-12T13:26:06.941Z,99961.44
2023-05-12T13:28:33.297Z,99960.38
2023-05-12T13:31:00.003Z,99950.50
2023-05-12T13:33:26.403Z,99948.28
2023-05-12T13:35:52.899Z,99957.53
2023-05-12T13:38:19.813Z,99957.28
2023-05-12T13:40:46.360Z,99954.34
2023-05-12T13:43:12.984Z,99957.63
2023-05-12T13:45:39.436Z,99964.50
2023-05-12T13:48:06.212Z,99959.13
2023-05-12T13:50:33.745Z,99957.84
2023-05-12T13:53:00.434Z,99955.97
2023-05-12T13:55:27.201Z,99957.22
2023-05-12T13:57:53.770Z,99952.38
2023-05-12T14:00:20.457Z,99942.66
2023-05-12T14:02:46.902Z,99948.19
2023-05-12T14:05:13.490Z,99945.34
2023-05-12T14:07:40.208Z,99958.06
2023-05-12T14:10:07.059Z,99950.28
2023-05-12T14:12:33.552Z,99954.19
2023-05-12T14:15:15.726Z,99946.72
2023-05-12T14:17:46.434Z,99957.34
2023-05-12T14:20:13.025Z,99950.75
2023-05-12T14:22:39.465Z,99956.88
2023-05-12T14:25:06.252Z,99950.09
2023-05-12T14:27:32.634Z,99954.28
2023-05-12T14:29:59.030Z,99961.09
2023-05-12T14:32:25.495Z,99971.34
2023-05-12T14:34:51.944Z,99994.34
2023-05-12T14:37:18.414Z,99998.16
2023-05-12T14:39:44.883Z,100009.94
2023-05-12T14:42:11.336Z,100019.44
2023-05-12T14:44:37.738Z,100006.69
2023-05-12T14:47:04.669Z,99989.84
2023-05-12T14:49:31.699Z,99985.72
2023-05-12T14:51:58.098Z,99989.06
2023-05-12T14:54:25.701Z,99987.44
2023-05-12T14:56:52.843Z,99988.31
2023-05-12T14:59:19.374Z,99977.84
2023-05-12T15:01:46.050Z,99981.34
2023-05-12T15:04:13.189Z,99972.75
2023-05-12T15:06:39.978Z,99975.13
2023-05-12T15:09:07.221Z,99977.59
2023-05-12T15:11:33.684Z,99964.34
2023-05-12T15:14:00.379Z,99965.09
2023-05-12T15:16:28.073Z,99961.91
2023-05-12T15:18:54.711Z,99968.88
2023-05-12T15:21:21.276Z,99970.81
2023-05-12T15:23:47.916Z,99964.09
2023-05-12T15:26:31.319Z,99967.97
2023-05-12T15:28:59.747Z,99963.31
2023-05-12T15:31:28.852Z,99964.69
2023-05-12T15:33:56.567Z,99959.88
2023-05-12T15:36:22.957Z,99956.06
2023-05-12T15:38:49.349Z,99961.69
2023-05-12T15:41:15.730Z,99964.16
2023-05-12T15:43:42.430Z,99958.66
2023-05-12T15:46:10.898Z,99960.59
2023-05-12T15:48:37.615Z,99954.41
2023-05-12T15:51:04.221Z,99951.47
2023-05-12T15:53:30.989Z,99950.72
2023-05-12T15:56:04.753Z,99951.88
2023-05-12T15:58:31.480Z,99954.25
2023-05-12T16:00:58.015Z,99960.03
2023-05-12T16:03:24.560Z,99958.97
2023-05-12T16:05:51.239Z,99961.22
2023-05-12T16:08:17.697Z,99973.84
2023-05-12T16:10:44.302Z,99972.94
2023-05-12T16:13:10.784Z,99977.41
2023-05-12T16:15:37.290Z,99959.97
2023-05-12T16:18:03.912Z,99963.31
2023-05-12T16:20:30.404Z,99957.78
2023-05-12T16:22:56.825Z,99955.44
2023-05-12T16:25:23.332Z,99953.22
2023-05-12T16:27:50.109Z,99952.00
2023-05-12T16:30:19.102Z,99952.78
2023-05-12T16:32:47.393Z,99946.19
2023-05-12T16:35:13.987Z,99951.69
2023-05-12T16:37:40.435Z,99950.38
2023-05-12T16:40:07.702Z,99958.72
2023-05-12T16:42:35.349Z,99957.19
2023-05-12T16:45:01.752Z,99957.97
2023-05-12T16:47:29.482Z,99964.19
2023-05-12T16:49:57.595Z,99976.75
2023-05-12T16:52:24.005Z,99985.44
2023-05-12T16:54:50.727Z,99980.03
2023-05-12T16:57:18.251Z,99984.75
2023-05-12T16:59:45.193Z,99983.13
2023-05-12T17:02:11.802Z,99992.63
2023-05-12T17:04:38.243Z,99990.91
2023-05-12T17:07:04.745Z,100001.88
2023-05-12T17:09:31.109Z,100010.41
2023-05-12T17:11:57.461Z,100011.28
2023-05-12T17:14:23.792Z,100011.88
2023-05-12T17:16:50.164Z,100023.13
2023-05-12T17:19:16.562Z,100019.00
2023-05-12T17:21:42.939Z,100024.81
2023-05-12T17:24:09.516Z,100017.19
2023-05-12T17:26:36.047Z,100014.47
2023-05-12T17:29:02.517Z,100020.28
2023-05-12T17:31:29.146Z,100014.88
2023-05-12T17:33:55.626Z,100024.41
2023-05-12T17:36:22.141Z,100028.94
2023-05-12T17:38:50.018Z,100015.03
2023-05-12T17:41:16.501Z,100016.38
2023-05-12T17:43:42.988Z,100023.28
2023-05-12T17:46:09.743Z,100022.53
2023-05-12T17:48:38.244Z,100021.91
2023-05-12T17:51:04.937Z,100021.97
2023-05-12T17:53:32.272Z,100028.53
2023-05-12T17:55:59.794Z,100025.97
2023-05-12T17:58:26.301Z,100029.88
2023-05-12T18:00:52.852Z,100024.31
2023-05-12T18:03:23.556Z,100026.88
2023-05-12T18:05:51.977Z,100027.91
2023-05-12T18:08:19.003Z,100032.78
2023-05-12T18:10:45.955Z,100028.66
2023-05-12T18:13:13.043Z,100029.59
2023-05-12T18:15:39.434Z,100025.91
2023-05-12T18:18:06.092Z,100028.16
2023-05-12T18:20:32.506Z,100027.66
2023-05-12T18:22:58.953Z,100038.25
2023-05-12T18:25:25.423Z,100031.41
2023-05-12T18:27:52.684Z,100030.88
2023-05-12T18:30:19.237Z,100031.47
2023-05-12T18:32:45.627Z,100038.00
2023-05-12T18:35:12.268Z,100045.44
2023-05-12T18:37:38.648Z,100045.06
2023-05-12T18:40:06.820Z,100040.06
2023-05-12T18:42:34.258Z,100047.72
2023-05-12T18:45:00.727Z,100052.88
2023-05-12T18:47:27.257Z,100058.31
2023-05-12T18:49:53.852Z,100062.88
2023-05-12T18:52:21.237Z,100060.00
2023-05-12T18:54:49.407Z,100067.03
2023-05-12T18:57:16.397Z,100068.25
2023-05-12T18:59:42.859Z,100060.81
2023-05-12T19:02:09.290Z,100069.09
2023-05-12T19:04:35.888Z,100074.69
2023-05-12T19:07:02.427Z,100078.75
2023-05-12T19:09:29.067Z,100078.97
2023-05-12T19:11:55.585Z,100081.44
2023-05-12T19:14:22.496Z,100084.72
2023-05-12T19:16:48.942Z,100086.16
2023-05-12T19:19:15.474Z,100088.00
2023-05-12T19:21:41.849Z,100085.75
2023-05-12T19:24:10.385Z,100089.19
2023-05-12T19:26:37.254Z,100093.31
2023-05-12T19:29:04.402Z,100095.59
2023-05-12T19:31:30.961Z,100107.28
2023-05-12T19:33:57.377Z,100108.78
2023-05-12T19:36:23.777Z,100110.41
2023-05-12T19:38:50.159Z,100114.28
2023-05-12T19:41:16.540Z,100124.97
2023-05-12T19:43:42.904Z,100120.38
2023-05-12T19:46:09.284Z,100112.47
2023-05-12T19:48:35.966Z,100117.41
2023-05-12T19:51:02.397Z,100119.44
2023-05-12T19:53:28.840Z,100115.41
2023-05-12T19:55:55.298Z,100121.75
2023-05-12T19:58:21.652Z,100122.34
2023-05-12T20:00:48.658Z,100130.88
2023-05-12T20:03:15.380Z,100124.09
2023-05-12T20:05:42.261Z,100131.97
2023-05-12T20:08:08.704Z,100130.13
2023-05-12T20:10:35.201Z,100132.56
2023-05-12T20:13:03.733Z,100131.31
2023-05-12T20:15:31.284Z,100133.72
2023-05-12T20:17:58.125Z,100135.59
2023-05-12T20:20:24.682Z,100142.38
2023-05-12T20:22:51.461Z,100137.41
2023-05-12T20:25:17.986Z,100140.22
2023-05-12T20:27:45.053Z,100143.13
2023-05-12T20:30:12.637Z,100135.25
2023-05-12T20:32:39.257Z,100139.38
2023-05-12T20:35:09.211Z,100135.94
2023-05-12T20:37:35.651Z,100142.78
2023-05-12T20:40:02.153Z,100130.63
2023-05-12T20:42:28.745Z,100135.22
2023-05-12T20:44:55.297Z,100132.97
2023-05-12T20:47:21.748Z,100134.63
2023-05-12T20:49:48.480Z,100136.41
2023-05-12T20:52:15.232Z,100138.28
2023-05-12T20:54:41.709Z,100143.66
2023-05-12T20:57:10.254Z,100155.34
2023-05-12T20:59:36.632Z,100151.91
2023-05-12T21:02:06.340Z,100158.84
2023-05-12T21:04:33.029Z,100161.59
2023-05-12T21:06:59.374Z,100156.97
2023-05-12T21:09:25.808Z,100154.66
2023-05-12T21:11:52.177Z,100165.06
2023-05-12T21:14:18.671Z,100165.66
2023-05-12T21:16:45.078Z,100161.25
2023-05-12T21:19:11.876Z,100158.56
2023-05-12T21:21:38.358Z,100170.00
2023-05-12T21:24:04.901Z,100167.34
2023-05-12T21:26:31.250Z,100171.94
2023-05-12T21:28:57.727Z,100169.97
2023-05-12T21:31:24.292Z,100170.44
2023-05-12T21:33:50.749Z,100174.16
2023-05-12T21:36:17.106Z,100179.78
2023-05-12T21:38:43.560Z,100179.75
2023-05-12T21:41:10.026Z,100181.94
2023-05-12T21:43:36.718Z,100183.56
2023-05-12T21:46:04.543Z,100179.50
2023-05-12T21:48:32.097Z,100180.59
2023-05-12T21:51:03.384Z,100186.22
2023-05-12T21:53:30.020Z,100187.81
2023-05-12T21:55:56.476Z,100188.28
2023-05-12T21:58:23.803Z,100192.59
2023-05-12T22:00:51.566Z,100196.91
2023-05-12T22:03:20.340Z,100195.66
2023-05-12T22:05:47.018Z,100203.00
2023-05-12T22:08:13.884Z,100205.28
2023-05-12T22:10:40.461Z,100204.31
2023-05-12T22:13:07.635Z,100208.16
2023-05-12T22:15:34.612Z,100210.91
2023-05-12T22:18:01.434Z,100206.56
2023-05-12T22:20:28.127Z,100204.53
2023-05-12T22:22:54.541Z,100204.78
2023-05-12T22:25:20.972Z,100201.69
2023-05-12T22:27:47.400Z,100205.84
2023-05-12T22:30:14.148Z,100205.56
2023-05-12T22:32:40.767Z,100208.09
2023-05-12T22:35:07.828Z,100210.31
2023-05-12T22:37:34.433Z,100219.69
2023-05-12T22:40:00.883Z,100211.16
2023-05-12T22:42:27.554Z,100215.84
2023-05-12T22:44:54.020Z,100211.69
2023-05-12T22:47:20.766Z,100215.41
2023-05-12T22:49:47.213Z,100214.94
2023-05-12T22:52:14.776Z,100215.38
2023-05-12T22:54:41.171Z,100223.38
2023-05-12T22:57:07.637Z,100215.88
2023-05-12T22:59:34.295Z,100230.81
2023-05-12T23:02:00.739Z,100227.00
2023-05-12T23:04:27.425Z,100233.72
2023-05-12T23:06:53.885Z,100245.75
2023-05-12T23:09:20.334Z,100243.72
2023-05-12T23:11:46.778Z,100230.06
2023-05-12T23:14:13.265Z,100234.97
2023-05-12T23:16:39.738Z,100236.78
2023-05-12T23:19:06.143Z,100235.94
2023-05-12T23:21:32.914Z,100228.97
2023-05-12T23:23:59.449Z,100229.59
2023-05-12T23:26:25.988Z,100237.63
2023-05-12T23:28:52.412Z,100226.50
2023-05-12T23:31:18.804Z,100228.78
2023-05-12T23:33:45.333Z,100223.78
2023-05-12T23:36:13.409Z,100227.09
2023-05-12T23:38:39.941Z,100225.75
2023-05-12T23:41:06.417Z,100234.41
2023-05-12T23:43:32.919Z,100235.09
2023-05-12T23:45:59.765Z,100243.38
2023-05-12T23:48:26.553Z,100242.63
2023-05-12T23:50:53.075Z,100238.28
2023-05-12T23:53:19.760Z,100231.81
2023-05-12T23:55:46.192Z,100242.50
2023-05-12T23:58:12.635Z,100238.81
